sensor_id;sensor_type;location;lat;lon;timestamp;P1;durP1;ratioP1;P2;durP2;ratioP2
54157;SDS011;40065;49.894;10.358;2023-06-10T00:02:52;6.55;;;4.85;;
54157;SDS011;40065;49.894;10.358;2023-06-10T00:07:54;5.57;;;4.68;;
54157;SDS011;40065;49.894;10.358;2023-06-10T00:12:56;6.40;;;5.50;;
54157;SDS011;40065;49.894;10.358;2023-06-10T00:17:58;6.63;;;5.75;;
54157;SDS011;40065;49.894;10.358;2023-06-10T00:23:00;6.45;;;5.20;;
54157;SDS011;40065;49.894;10.358;2023-06-10T00:28:02;6.22;;;5.18;;
54157;SDS011;40065;49.894;10.358;2023-06-10T00:33:04;6.03;;;5.15;;
54157;SDS011;40065;49.894;10.358;2023-06-10T00:38:08;7.18;;;4.70;;
54157;SDS011;40065;49.894;10.358;2023-06-10T00:43:10;6.68;;;4.80;;
54157;SDS011;40065;49.894;10.358;2023-06-10T00:48:12;8.30;;;4.97;;
54157;SDS011;40065;49.894;10.358;2023-06-10T00:53:15;5.85;;;4.85;;
54157;SDS011;40065;49.894;10.358;2023-06-10T00:58:17;4.82;;;4.00;;
54157;SDS011;40065;49.894;10.358;2023-06-10T01:03:19;6.53;;;5.00;;
54157;SDS011;40065;49.894;10.358;2023-06-10T01:08:41;5.70;;;4.65;;
54157;SDS011;40065;49.894;10.358;2023-06-10T01:13:58;5.05;;;4.30;;
54157;SDS011;40065;49.894;10.358;2023-06-10T01:19:02;4.90;;;3.90;;
54157;SDS011;40065;49.894;10.358;2023-06-10T01:24:04;5.28;;;4.22;;
54157;SDS011;40065;49.894;10.358;2023-06-10T01:29:11;5.03;;;3.67;;
54157;SDS011;40065;49.894;10.358;2023-06-10T01:34:20;5.65;;;4.53;;
54157;SDS011;40065;49.894;10.358;2023-06-10T01:39:24;5.50;;;4.03;;
54157;SDS011;40065;49.894;10.358;2023-06-10T01:44:27;5.00;;;3.85;;
54157;SDS011;40065;49.894;10.358;2023-06-10T01:49:29;5.10;;;4.32;;
54157;SDS011;40065;49.894;10.358;2023-06-10T01:54:31;5.00;;;4.35;;
54157;SDS011;40065;49.894;10.358;2023-06-10T01:59:33;5.90;;;4.15;;
54157;SDS011;40065;49.894;10.358;2023-06-10T02:04:35;6.20;;;4.78;;
54157;SDS011;40065;49.894;10.358;2023-06-10T02:09:36;5.78;;;4.68;;
54157;SDS011;40065;49.894;10.358;2023-06-10T02:14:38;6.55;;;5.25;;
54157;SDS011;40065;49.894;10.358;2023-06-10T02:19:40;5.47;;;4.53;;
54157;SDS011;40065;49.894;10.358;2023-06-10T02:24:44;7.90;;;5.70;;
54157;SDS011;40065;49.894;10.358;2023-06-10T02:29:45;7.95;;;5.45;;
54157;SDS011;40065;49.894;10.358;2023-06-10T02:34:47;6.32;;;4.65;;
54157;SDS011;40065;49.894;10.358;2023-06-10T02:39:53;6.13;;;3.95;;
54157;SDS011;40065;49.894;10.358;2023-06-10T02:44:56;6.03;;;3.65;;
54157;SDS011;40065;49.894;10.358;2023-06-10T02:50:08;6.05;;;4.75;;
54157;SDS011;40065;49.894;10.358;2023-06-10T02:55:19;7.18;;;5.07;;
54157;SDS011;40065;49.894;10.358;2023-06-10T03:00:26;6.90;;;4.68;;
54157;SDS011;40065;49.894;10.358;2023-06-10T03:05:31;6.30;;;4.88;;
54157;SDS011;40065;49.894;10.358;2023-06-10T03:10:37;5.78;;;4.80;;
54157;SDS011;40065;49.894;10.358;2023-06-10T03:15:39;7.72;;;5.32;;
54157;SDS011;40065;49.894;10.358;2023-06-10T03:20:45;8.35;;;5.00;;
54157;SDS011;40065;49.894;10.358;2023-06-10T03:25:48;7.10;;;5.90;;
54157;SDS011;40065;49.894;10.358;2023-06-10T03:30:52;6.47;;;4.93;;
54157;SDS011;40065;49.894;10.358;2023-06-10T03:35:57;6.15;;;4.43;;
54157;SDS011;40065;49.894;10.358;2023-06-10T03:40:59;5.63;;;4.88;;
54157;SDS011;40065;49.894;10.358;2023-06-10T03:46:01;5.72;;;4.63;;
54157;SDS011;40065;49.894;10.358;2023-06-10T03:51:04;8.02;;;5.25;;
54157;SDS011;40065;49.894;10.358;2023-06-10T03:56:07;6.72;;;4.57;;
54157;SDS011;40065;49.894;10.358;2023-06-10T04:01:09;6.20;;;5.57;;
54157;SDS011;40065;49.894;10.358;2023-06-10T04:06:12;6.47;;;5.03;;
54157;SDS011;40065;49.894;10.358;2023-06-10T04:11:14;6.70;;;5.35;;
54157;SDS011;40065;49.894;10.358;2023-06-10T04:16:16;7.28;;;5.28;;
54157;SDS011;40065;49.894;10.358;2023-06-10T04:21:20;7.53;;;5.88;;
54157;SDS011;40065;49.894;10.358;2023-06-10T04:26:23;5.72;;;4.85;;
54157;SDS011;40065;49.894;10.358;2023-06-10T04:31:27;6.47;;;5.22;;
54157;SDS011;40065;49.894;10.358;2023-06-10T04:36:29;6.95;;;5.22;;
54157;SDS011;40065;49.894;10.358;2023-06-10T04:41:31;6.78;;;5.10;;
54157;SDS011;40065;49.894;10.358;2023-06-10T04:46:33;6.15;;;5.38;;
54157;SDS011;40065;49.894;10.358;2023-06-10T04:51:35;6.03;;;4.55;;
54157;SDS011;40065;49.894;10.358;2023-06-10T04:56:37;6.35;;;5.53;;
54157;SDS011;40065;49.894;10.358;2023-06-10T05:01:40;6.63;;;5.18;;
54157;SDS011;40065;49.894;10.358;2023-06-10T05:06:42;7.50;;;5.00;;
54157;SDS011;40065;49.894;10.358;2023-06-10T05:11:44;6.93;;;5.70;;
54157;SDS011;40065;49.894;10.358;2023-06-10T05:16:46;7.25;;;6.07;;
54157;SDS011;40065;49.894;10.358;2023-06-10T05:21:49;6.55;;;5.85;;
54157;SDS011;40065;49.894;10.358;2023-06-10T05:26:51;9.23;;;6.25;;
54157;SDS011;40065;49.894;10.358;2023-06-10T05:31:53;7.55;;;6.43;;
54157;SDS011;40065;49.894;10.358;2023-06-10T05:36:55;9.05;;;6.70;;
54157;SDS011;40065;49.894;10.358;2023-06-10T05:41:57;8.77;;;7.00;;
54157;SDS011;40065;49.894;10.358;2023-06-10T05:47:00;10.85;;;6.55;;
54157;SDS011;40065;49.894;10.358;2023-06-10T05:52:02;8.38;;;6.40;;
54157;SDS011;40065;49.894;10.358;2023-06-10T05:57:05;8.43;;;6.53;;
54157;SDS011;40065;49.894;10.358;2023-06-10T06:02:07;7.93;;;6.18;;
54157;SDS011;40065;49.894;10.358;2023-06-10T06:07:09;8.57;;;6.50;;
54157;SDS011;40065;49.894;10.358;2023-06-10T06:12:11;20.90;;;6.70;;
54157;SDS011;40065;49.894;10.358;2023-06-10T06:17:13;7.38;;;6.43;;
54157;SDS011;40065;49.894;10.358;2023-06-10T06:22:14;8.40;;;6.30;;
54157;SDS011;40065;49.894;10.358;2023-06-10T06:27:21;9.23;;;6.45;;
54157;SDS011;40065;49.894;10.358;2023-06-10T06:32:22;8.05;;;6.25;;
54157;SDS011;40065;49.894;10.358;2023-06-10T06:37:27;7.70;;;6.30;;
54157;SDS011;40065;49.894;10.358;2023-06-10T06:42:44;7.68;;;6.45;;
54157;SDS011;40065;49.894;10.358;2023-06-10T06:47:53;13.60;;;6.53;;
54157;SDS011;40065;49.894;10.358;2023-06-10T06:52:55;8.15;;;6.15;;
54157;SDS011;40065;49.894;10.358;2023-06-10T06:57:57;7.45;;;5.63;;
54157;SDS011;40065;49.894;10.358;2023-06-10T07:02:59;8.43;;;6.17;;
54157;SDS011;40065;49.894;10.358;2023-06-10T07:08:01;8.98;;;5.90;;
54157;SDS011;40065;49.894;10.358;2023-06-10T07:13:03;8.93;;;5.20;;
54157;SDS011;40065;49.894;10.358;2023-06-10T07:18:05;7.90;;;5.15;;
54157;SDS011;40065;49.894;10.358;2023-06-10T07:23:07;6.60;;;5.53;;
54157;SDS011;40065;49.894;10.358;2023-06-10T07:28:09;6.30;;;5.32;;
54157;SDS011;40065;49.894;10.358;2023-06-10T07:33:11;6.82;;;5.20;;
54157;SDS011;40065;49.894;10.358;2023-06-10T07:38:13;5.72;;;5.05;;
54157;SDS011;40065;49.894;10.358;2023-06-10T07:43:15;5.68;;;4.80;;
54157;SDS011;40065;49.894;10.358;2023-06-10T07:48:17;6.38;;;4.70;;
54157;SDS011;40065;49.894;10.358;2023-06-10T07:53:19;6.72;;;4.82;;
54157;SDS011;40065;49.894;10.358;2023-06-10T07:58:20;7.93;;;4.95;;
54157;SDS011;40065;49.894;10.358;2023-06-10T08:03:23;8.43;;;4.65;;
54157;SDS011;40065;49.894;10.358;2023-06-10T08:08:25;4.67;;;4.00;;
54157;SDS011;40065;49.894;10.358;2023-06-10T08:13:27;4.55;;;4.10;;
54157;SDS011;40065;49.894;10.358;2023-06-10T08:18:29;6.57;;;4.30;;
54157;SDS011;40065;49.894;10.358;2023-06-10T08:23:30;7.00;;;4.40;;
54157;SDS011;40065;49.894;10.358;2023-06-10T08:28:32;4.60;;;3.20;;
54157;SDS011;40065;49.894;10.358;2023-06-10T08:33:34;4.55;;;3.30;;
54157;SDS011;40065;49.894;10.358;2023-06-10T08:38:36;4.53;;;3.38;;
54157;SDS011;40065;49.894;10.358;2023-06-10T08:48:45;4.65;;;3.55;;
54157;SDS011;40065;49.894;10.358;2023-06-10T08:54:02;5.40;;;3.90;;
54157;SDS011;40065;49.894;10.358;2023-06-10T08:59:09;6.97;;;3.63;;
54157;SDS011;40065;49.894;10.358;2023-06-10T09:04:12;5.30;;;3.72;;
54157;SDS011;40065;49.894;10.358;2023-06-10T09:09:14;4.60;;;3.47;;
54157;SDS011;40065;49.894;10.358;2023-06-10T09:14:17;4.97;;;3.57;;
54157;SDS011;40065;49.894;10.358;2023-06-10T09:19:19;5.33;;;3.87;;
54157;SDS011;40065;49.894;10.358;2023-06-10T09:24:22;5.47;;;3.30;;
54157;SDS011;40065;49.894;10.358;2023-06-10T09:34:26;4.15;;;3.47;;
54157;SDS011;40065;49.894;10.358;2023-06-10T09:39:30;6.40;;;3.85;;
54157;SDS011;40065;49.894;10.358;2023-06-10T09:44:31;5.07;;;3.57;;
54157;SDS011;40065;49.894;10.358;2023-06-10T09:49:33;3.90;;;3.40;;
54157;SDS011;40065;49.894;10.358;2023-06-10T09:54:39;3.83;;;3.40;;
54157;SDS011;40065;49.894;10.358;2023-06-10T09:59:41;6.77;;;3.50;;
54157;SDS011;40065;49.894;10.358;2023-06-10T10:04:43;4.38;;;3.22;;
54157;SDS011;40065;49.894;10.358;2023-06-10T10:09:46;5.10;;;3.47;;
54157;SDS011;40065;49.894;10.358;2023-06-10T10:14:47;4.07;;;3.07;;
54157;SDS011;40065;49.894;10.358;2023-06-10T10:19:56;5.18;;;3.40;;
54157;SDS011;40065;49.894;10.358;2023-06-10T10:25:05;7.90;;;3.30;;
54157;SDS011;40065;49.894;10.358;2023-06-10T10:30:11;3.83;;;2.97;;
54157;SDS011;40065;49.894;10.358;2023-06-10T10:35:20;5.00;;;3.10;;
54157;SDS011;40065;49.894;10.358;2023-06-10T10:40:24;4.55;;;3.20;;
54157;SDS011;40065;49.894;10.358;2023-06-10T10:45:30;4.10;;;2.95;;
54157;SDS011;40065;49.894;10.358;2023-06-10T10:50:34;3.13;;;2.60;;
54157;SDS011;40065;49.894;10.358;2023-06-10T10:55:36;5.40;;;3.22;;
54157;SDS011;40065;49.894;10.358;2023-06-10T11:00:43;6.07;;;3.50;;
54157;SDS011;40065;49.894;10.358;2023-06-10T11:05:47;4.85;;;3.30;;
54157;SDS011;40065;49.894;10.358;2023-06-10T11:10:51;3.95;;;2.95;;
54157;SDS011;40065;49.894;10.358;2023-06-10T11:15:57;3.85;;;3.15;;
54157;SDS011;40065;49.894;10.358;2023-06-10T11:21:00;4.55;;;3.08;;
54157;SDS011;40065;49.894;10.358;2023-06-10T11:31:34;3.63;;;2.80;;
54157;SDS011;40065;49.894;10.358;2023-06-10T11:36:41;5.53;;;2.80;;
54157;SDS011;40065;49.894;10.358;2023-06-10T11:41:46;3.35;;;2.42;;
54157;SDS011;40065;49.894;10.358;2023-06-10T11:46:49;3.63;;;2.72;;
54157;SDS011;40065;49.894;10.358;2023-06-10T11:56:57;4.90;;;2.83;;
54157;SDS011;40065;49.894;10.358;2023-06-10T12:02:00;3.45;;;2.75;;
54157;SDS011;40065;49.894;10.358;2023-06-10T12:07:02;3.85;;;2.75;;
54157;SDS011;40065;49.894;10.358;2023-06-10T12:12:05;7.45;;;2.90;;
54157;SDS011;40065;49.894;10.358;2023-06-10T12:17:08;3.17;;;2.78;;
54157;SDS011;40065;49.894;10.358;2023-06-10T12:22:10;4.10;;;2.90;;
54157;SDS011;40065;49.894;10.358;2023-06-10T12:27:12;5.28;;;2.95;;
54157;SDS011;40065;49.894;10.358;2023-06-10T12:32:14;3.33;;;2.47;;
54157;SDS011;40065;49.894;10.358;2023-06-10T12:37:16;4.55;;;2.90;;
54157;SDS011;40065;49.894;10.358;2023-06-10T12:42:21;3.78;;;2.78;;
54157;SDS011;40065;49.894;10.358;2023-06-10T12:47:32;4.43;;;2.90;;
54157;SDS011;40065;49.894;10.358;2023-06-10T12:52:40;3.28;;;2.97;;
54157;SDS011;40065;49.894;10.358;2023-06-10T12:57:49;3.13;;;2.63;;
54157;SDS011;40065;49.894;10.358;2023-06-10T13:02:51;3.65;;;2.67;;
54157;SDS011;40065;49.894;10.358;2023-06-10T13:07:57;3.20;;;2.35;;
54157;SDS011;40065;49.894;10.358;2023-06-10T13:18:02;4.82;;;2.72;;
54157;SDS011;40065;49.894;10.358;2023-06-10T13:23:05;3.95;;;2.10;;
54157;SDS011;40065;49.894;10.358;2023-06-10T13:28:07;3.90;;;2.70;;
54157;SDS011;40065;49.894;10.358;2023-06-10T13:33:09;3.38;;;2.22;;
54157;SDS011;40065;49.894;10.358;2023-06-10T13:38:11;3.22;;;2.20;;
54157;SDS011;40065;49.894;10.358;2023-06-10T13:43:14;2.47;;;2.25;;
54157;SDS011;40065;49.894;10.358;2023-06-10T13:48:16;3.45;;;2.28;;
54157;SDS011;40065;49.894;10.358;2023-06-10T13:53:19;3.55;;;2.60;;
54157;SDS011;40065;49.894;10.358;2023-06-10T13:58:21;11.05;;;3.42;;
54157;SDS011;40065;49.894;10.358;2023-06-10T14:03:23;4.07;;;3.10;;
54157;SDS011;40065;49.894;10.358;2023-06-10T14:08:25;5.20;;;3.58;;
54157;SDS011;40065;49.894;10.358;2023-06-10T14:13:27;4.63;;;2.92;;
54157;SDS011;40065;49.894;10.358;2023-06-10T14:18:29;6.47;;;3.40;;
54157;SDS011;40065;49.894;10.358;2023-06-10T14:23:31;5.60;;;3.95;;
54157;SDS011;40065;49.894;10.358;2023-06-10T14:28:33;5.78;;;3.90;;
54157;SDS011;40065;49.894;10.358;2023-06-10T14:33:35;5.13;;;3.90;;
54157;SDS011;40065;49.894;10.358;2023-06-10T14:38:36;7.72;;;5.03;;
54157;SDS011;40065;49.894;10.358;2023-06-10T14:43:38;6.57;;;4.88;;
54157;SDS011;40065;49.894;10.358;2023-06-10T14:48:40;6.25;;;5.60;;
54157;SDS011;40065;49.894;10.358;2023-06-10T14:53:42;7.37;;;5.27;;
54157;SDS011;40065;49.894;10.358;2023-06-10T14:58:44;5.50;;;4.90;;
54157;SDS011;40065;49.894;10.358;2023-06-10T15:03:46;6.15;;;5.47;;
54157;SDS011;40065;49.894;10.358;2023-06-10T15:08:48;6.82;;;5.70;;
54157;SDS011;40065;49.894;10.358;2023-06-10T15:13:49;8.23;;;6.43;;
54157;SDS011;40065;49.894;10.358;2023-06-10T15:18:51;8.02;;;5.72;;
54157;SDS011;40065;49.894;10.358;2023-06-10T15:23:53;9.30;;;7.18;;
54157;SDS011;40065;49.894;10.358;2023-06-10T15:28:55;9.18;;;6.43;;
54157;SDS011;40065;49.894;10.358;2023-06-10T15:33:57;7.38;;;5.38;;
54157;SDS011;40065;49.894;10.358;2023-06-10T15:39:01;9.20;;;5.63;;
54157;SDS011;40065;49.894;10.358;2023-06-10T15:44:04;7.00;;;5.90;;
54157;SDS011;40065;49.894;10.358;2023-06-10T15:49:06;7.83;;;6.00;;
54157;SDS011;40065;49.894;10.358;2023-06-10T15:54:08;7.80;;;6.57;;
54157;SDS011;40065;49.894;10.358;2023-06-10T15:59:10;7.70;;;6.17;;
54157;SDS011;40065;49.894;10.358;2023-06-10T16:04:13;6.63;;;5.28;;
54157;SDS011;40065;49.894;10.358;2023-06-10T16:09:15;7.67;;;5.80;;
54157;SDS011;40065;49.894;10.358;2023-06-10T16:14:17;6.25;;;5.45;;
54157;SDS011;40065;49.894;10.358;2023-06-10T16:19:19;7.53;;;5.57;;
54157;SDS011;40065;49.894;10.358;2023-06-10T16:24:21;8.88;;;5.97;;
54157;SDS011;40065;49.894;10.358;2023-06-10T16:29:23;7.00;;;6.30;;
54157;SDS011;40065;49.894;10.358;2023-06-10T16:34:27;6.80;;;6.10;;
54157;SDS011;40065;49.894;10.358;2023-06-10T16:39:29;6.65;;;5.95;;
54157;SDS011;40065;49.894;10.358;2023-06-10T16:44:31;7.03;;;6.30;;
54157;SDS011;40065;49.894;10.358;2023-06-10T16:49:32;7.38;;;6.30;;
54157;SDS011;40065;49.894;10.358;2023-06-10T16:54:35;9.95;;;5.53;;
54157;SDS011;40065;49.894;10.358;2023-06-10T16:59:37;6.90;;;5.07;;
54157;SDS011;40065;49.894;10.358;2023-06-10T17:04:39;6.95;;;5.40;;
54157;SDS011;40065;49.894;10.358;2023-06-10T17:09:41;7.80;;;5.35;;
54157;SDS011;40065;49.894;10.358;2023-06-10T17:14:42;5.95;;;5.30;;
54157;SDS011;40065;49.894;10.358;2023-06-10T17:19:44;14.38;;;5.63;;
54157;SDS011;40065;49.894;10.358;2023-06-10T17:24:50;6.32;;;4.93;;
54157;SDS011;40065;49.894;10.358;2023-06-10T17:29:52;5.97;;;4.63;;
54157;SDS011;40065;49.894;10.358;2023-06-10T17:34:54;4.73;;;3.80;;
54157;SDS011;40065;49.894;10.358;2023-06-10T17:39:56;5.03;;;3.97;;
54157;SDS011;40065;49.894;10.358;2023-06-10T17:44:58;5.10;;;4.00;;
54157;SDS011;40065;49.894;10.358;2023-06-10T17:49:59;4.15;;;3.65;;
54157;SDS011;40065;49.894;10.358;2023-06-10T17:55:01;5.22;;;3.75;;
54157;SDS011;40065;49.894;10.358;2023-06-10T18:00:04;4.80;;;3.70;;
54157;SDS011;40065;49.894;10.358;2023-06-10T18:05:08;4.75;;;3.80;;
54157;SDS011;40065;49.894;10.358;2023-06-10T18:10:10;4.32;;;3.50;;
54157;SDS011;40065;49.894;10.358;2023-06-10T18:15:12;4.32;;;3.92;;
54157;SDS011;40065;49.894;10.358;2023-06-10T18:20:14;4.65;;;4.15;;
54157;SDS011;40065;49.894;10.358;2023-06-10T18:25:16;5.53;;;4.43;;
54157;SDS011;40065;49.894;10.358;2023-06-10T18:30:18;5.80;;;4.60;;
54157;SDS011;40065;49.894;10.358;2023-06-10T18:35:20;8.33;;;4.80;;
54157;SDS011;40065;49.894;10.358;2023-06-10T18:40:22;4.50;;;3.97;;
54157;SDS011;40065;49.894;10.358;2023-06-10T18:45:24;8.93;;;4.95;;
54157;SDS011;40065;49.894;10.358;2023-06-10T18:50:26;5.60;;;4.40;;
54157;SDS011;40065;49.894;10.358;2023-06-10T18:55:28;7.55;;;4.57;;
54157;SDS011;40065;49.894;10.358;2023-06-10T19:00:33;6.93;;;4.80;;
54157;SDS011;40065;49.894;10.358;2023-06-10T19:05:35;7.22;;;4.70;;
54157;SDS011;40065;49.894;10.358;2023-06-10T19:10:37;7.15;;;4.68;;
54157;SDS011;40065;49.894;10.358;2023-06-10T19:15:39;5.47;;;4.30;;
54157;SDS011;40065;49.894;10.358;2023-06-10T19:20:41;8.40;;;5.32;;
54157;SDS011;40065;49.894;10.358;2023-06-10T19:25:44;11.03;;;5.00;;
54157;SDS011;40065;49.894;10.358;2023-06-10T19:30:45;6.50;;;5.10;;
54157;SDS011;40065;49.894;10.358;2023-06-10T19:35:47;5.40;;;4.72;;
54157;SDS011;40065;49.894;10.358;2023-06-10T19:40:49;6.90;;;4.88;;
54157;SDS011;40065;49.894;10.358;2023-06-10T19:45:51;5.32;;;4.82;;
54157;SDS011;40065;49.894;10.358;2023-06-10T19:50:53;6.07;;;5.25;;
54157;SDS011;40065;49.894;10.358;2023-06-10T19:55:54;8.43;;;5.35;;
54157;SDS011;40065;49.894;10.358;2023-06-10T20:00:56;9.13;;;5.38;;
54157;SDS011;40065;49.894;10.358;2023-06-10T20:05:58;9.60;;;5.82;;
54157;SDS011;40065;49.894;10.358;2023-06-10T20:11:01;11.38;;;6.25;;
54157;SDS011;40065;49.894;10.358;2023-06-10T20:16:03;8.93;;;5.32;;
54157;SDS011;40065;49.894;10.358;2023-06-10T20:21:06;7.15;;;4.90;;
54157;SDS011;40065;49.894;10.358;2023-06-10T20:26:08;6.88;;;5.50;;
54157;SDS011;40065;49.894;10.358;2023-06-10T20:31:10;7.03;;;5.80;;
54157;SDS011;40065;49.894;10.358;2023-06-10T20:36:12;9.73;;;6.20;;
54157;SDS011;40065;49.894;10.358;2023-06-10T20:41:16;7.03;;;5.80;;
54157;SDS011;40065;49.894;10.358;2023-06-10T20:46:19;7.03;;;6.13;;
54157;SDS011;40065;49.894;10.358;2023-06-10T20:51:21;6.35;;;5.20;;
54157;SDS011;40065;49.894;10.358;2023-06-10T20:56:23;6.75;;;5.03;;
54157;SDS011;40065;49.894;10.358;2023-06-10T21:01:25;5.75;;;4.25;;
54157;SDS011;40065;49.894;10.358;2023-06-10T21:06:27;5.45;;;4.78;;
54157;SDS011;40065;49.894;10.358;2023-06-10T21:11:29;6.50;;;5.22;;
54157;SDS011;40065;49.894;10.358;2023-06-10T21:16:30;7.47;;;4.80;;
54157;SDS011;40065;49.894;10.358;2023-06-10T21:21:35;8.15;;;5.05;;
54157;SDS011;40065;49.894;10.358;2023-06-10T21:26:37;4.75;;;4.22;;
54157;SDS011;40065;49.894;10.358;2023-06-10T21:31:40;7.07;;;4.40;;
54157;SDS011;40065;49.894;10.358;2023-06-10T21:36:42;5.88;;;4.70;;
54157;SDS011;40065;49.894;10.358;2023-06-10T21:41:44;6.38;;;4.72;;
54157;SDS011;40065;49.894;10.358;2023-06-10T21:46:46;5.72;;;4.47;;
54157;SDS011;40065;49.894;10.358;2023-06-10T21:51:47;5.00;;;4.45;;
54157;SDS011;40065;49.894;10.358;2023-06-10T21:56:49;5.22;;;4.57;;
54157;SDS011;40065;49.894;10.358;2023-06-10T22:01:51;6.75;;;4.57;;
54157;SDS011;40065;49.894;10.358;2023-06-10T22:06:53;8.88;;;5.60;;
54157;SDS011;40065;49.894;10.358;2023-06-10T22:11:55;5.40;;;4.70;;
54157;SDS011;40065;49.894;10.358;2023-06-10T22:16:57;6.82;;;5.97;;
54157;SDS011;40065;49.894;10.358;2023-06-10T22:21:59;5.10;;;4.00;;
54157;SDS011;40065;49.894;10.358;2023-06-10T22:27:01;7.03;;;4.88;;
54157;SDS011;40065;49.894;10.358;2023-06-10T22:32:03;13.57;;;5.40;;
54157;SDS011;40065;49.894;10.358;2023-06-10T22:37:06;6.75;;;4.80;;
54157;SDS011;40065;49.894;10.358;2023-06-10T22:42:08;6.05;;;4.63;;
54157;SDS011;40065;49.894;10.358;2023-06-10T22:47:11;5.95;;;5.03;;
54157;SDS011;40065;49.894;10.358;2023-06-10T22:52:13;4.63;;;3.95;;
54157;SDS011;40065;49.894;10.358;2023-06-10T22:57:14;5.57;;;4.97;;
54157;SDS011;40065;49.894;10.358;2023-06-10T23:02:16;8.60;;;5.53;;
54157;SDS011;40065;49.894;10.358;2023-06-10T23:07:18;5.20;;;4.30;;
54157;SDS011;40065;49.894;10.358;2023-06-10T23:12:21;6.17;;;5.10;;
54157;SDS011;40065;49.894;10.358;2023-06-10T23:17:23;5.20;;;4.35;;
54157;SDS011;40065;49.894;10.358;2023-06-10T23:22:29;6.70;;;5.95;;
54157;SDS011;40065;49.894;10.358;2023-06-10T23:27:34;5.60;;;4.60;;
54157;SDS011;40065;49.894;10.358;2023-06-10T23:32:36;9.25;;;6.03;;
54157;SDS011;40065;49.894;10.358;2023-06-10T23:37:38;7.80;;;6.35;;
54157;SDS011;40065;49.894;10.358;2023-06-10T23:42:40;7.68;;;6.38;;
54157;SDS011;40065;49.894;10.358;2023-06-10T23:47:42;8.27;;;6.40;;
54157;SDS011;40065;49.894;10.358;2023-06-10T23:52:44;9.27;;;6.43;;
54157;SDS011;40065;49.894;10.358;2023-06-10T23:57:46;7.88;;;6.50;;
